Time;durP1;ratioP1;P1;durP2;ratioP2;P2;SDS_P1;SDS_P2;PMS_P1;PMS_P2;Temp;Humidity;BMP_temperature;BMP_pressure;BME280_temperature;BME280_humidity;BME280_pressure;Samples;Min_cycle;Max_cycle;Signal;HPM_P1;HPM_P2
2022/07/11 00:00:59;;;;;;;;;;;;;;;17.23;70.11;102372.47;5083873;28;20379;-61
2022/07/11 00:03:25;;;;;;;;;;;;;;;17.15;70.53;102361.78;5084757;28;19922;-61
2022/07/11 00:05:50;;;;;;;;;;;;;;;17.10;70.67;102364.16;5085018;28;20268;-61
2022/07/11 00:08:15;;;;;;;;;;;;;;;17.02;71.60;102371.22;5082465;28;19990;-61
2022/07/11 00:10:41;;;;;;;;;;;;;;;16.94;71.73;102365.06;5081761;28;19912;-61
2022/07/11 00:13:06;;;;;;;;;;;;;;;16.85;71.92;102358.91;5081815;28;20379;-61
2022/07/11 00:15:31;;;;;;;;;;;;;;;16.83;71.80;102366.31;5085051;28;19938;-62
2022/07/11 00:17:57;;;;;;;;;;;;;;;16.81;71.99;102360.28;5086368;28;19920;-61
2022/07/11 00:20:22;;;;;;;;;;;;;;;16.79;72.37;102362.31;5087116;28;19916;-61
2022/07/11 00:22:47;;;;;;;;;;;;;;;16.77;72.46;102363.47;5067087;28;19935;-62
2022/07/11 00:25:12;;;;;;;;;;;;;;;16.77;72.61;102367.00;5079386;28;19919;-61
2022/07/11 00:27:37;;;;;;;;;;;;;;;16.76;72.51;102364.47;5080519;28;20010;-61
2022/07/11 00:30:03;;;;;;;;;;;;;;;16.75;72.47;102362.81;5085108;28;19955;-61
2022/07/11 00:32:28;;;;;;;;;;;;;;;16.74;72.18;102353.91;5077040;28;20010;-62
2022/07/11 00:34:53;;;;;;;;;;;;;;;16.72;72.15;102351.41;5073980;28;19916;-61
2022/07/11 00:37:18;;;;;;;;;;;;;;;16.71;72.09;102348.91;5076977;28;20014;-62
2022/07/11 00:39:43;;;;;;;;;;;;;;;16.69;72.19;102348.25;5080580;28;19927;-62
2022/07/11 00:42:09;;;;;;;;;;;;;;;16.69;71.84;102354.44;5080344;28;19919;-61
2022/07/11 00:44:36;;;;;;;;;;;;;;;16.66;72.13;102351.28;5075356;28;19923;-61
2022/07/11 00:47:01;;;;;;;;;;;;;;;16.63;72.28;102348.91;5082230;28;20044;-62
2022/07/11 00:49:26;;;;;;;;;;;;;;;16.60;72.74;102343.91;5075892;28;19961;-61
2022/07/11 00:51:51;;;;;;;;;;;;;;;16.59;72.11;102342.22;5079185;28;19920;-61
2022/07/11 00:54:18;;;;;;;;;;;;;;;16.58;72.64;102345.91;5078007;28;19985;-61
2022/07/11 00:56:44;;;;;;;;;;;;;;;16.57;72.25;102347.78;5080335;28;19912;-61
2022/07/11 00:59:09;;;;;;;;;;;;;;;16.55;72.67;102341.75;5079590;28;19920;-61
2022/07/11 01:01:37;;;;;;;;;;;;;;;16.53;72.57;102340.25;5072920;28;19915;-61
2022/07/11 01:04:03;;;;;;;;;;;;;;;16.51;72.59;102336.91;5079041;28;19912;-61
2022/07/11 01:06:28;;;;;;;;;;;;;;;16.47;72.38;102347.09;5080019;28;19919;-62
2022/07/11 01:08:53;;;;;;;;;;;;;;;16.46;72.65;102339.25;5078664;28;19939;-61
2022/07/11 01:11:18;;;;;;;;;;;;;;;16.42;72.78;102344.94;5077890;28;19912;-61
2022/07/11 01:13:44;;;;;;;;;;;;;;;16.41;72.38;102345.97;5076968;28;19916;-61
2022/07/11 01:16:14;;;;;;;;;;;;;;;16.37;72.51;102339.28;5076985;28;19985;-62
2022/07/11 01:18:40;;;;;;;;;;;;;;;16.32;72.75;102324.72;5076794;28;19951;-62
2022/07/11 01:21:09;;;;;;;;;;;;;;;16.29;72.98;102328.56;5079689;28;19959;-62
2022/07/11 01:23:35;;;;;;;;;;;;;;;16.26;73.76;102334.28;5081748;28;19959;-62
2022/07/11 01:26:00;;;;;;;;;;;;;;;16.22;74.11;102335.63;5078886;28;19951;-61
2022/07/11 01:28:25;;;;;;;;;;;;;;;16.16;74.04;102333.63;5077541;28;20324;-62
2022/07/11 01:30:50;;;;;;;;;;;;;;;16.10;73.82;102337.00;5080620;28;20347;-61
2022/07/11 01:33:16;;;;;;;;;;;;;;;16.07;74.72;102337.34;5083480;28;20374;-62
2022/07/11 01:35:41;;;;;;;;;;;;;;;16.00;74.77;102334.50;5077364;28;20041;-61
2022/07/11 01:38:06;;;;;;;;;;;;;;;15.97;74.97;102334.84;5078036;28;20470;-61
2022/07/11 01:40:31;;;;;;;;;;;;;;;15.95;75.66;102327.97;5077501;28;19923;-62
2022/07/11 01:42:56;;;;;;;;;;;;;;;15.94;75.63;102337.03;5074345;28;19965;-61
2022/07/11 01:45:21;;;;;;;;;;;;;;;15.91;76.38;102334.69;5080832;28;20302;-61
2022/07/11 01:47:47;;;;;;;;;;;;;;;15.83;76.20;102337.34;5079152;28;19908;-62
2022/07/11 01:50:12;;;;;;;;;;;;;;;15.80;76.20;102335.84;5077822;28;19944;-61
2022/07/11 01:52:37;;;;;;;;;;;;;;;15.81;76.08;102342.88;5076839;28;20294;-61
2022/07/11 01:55:02;;;;;;;;;;;;;;;15.85;76.61;102338.84;5078320;28;19908;-61
2022/07/11 01:57:28;;;;;;;;;;;;;;;15.90;76.91;102341.03;5077950;28;20194;-61
2022/07/11 01:59:53;;;;;;;;;;;;;;;15.88;77.02;102341.19;5079423;28;19977;-61
2022/07/11 02:02:18;;;;;;;;;;;;;;;15.87;76.97;102344.03;5077648;28;20379;-61
2022/07/11 02:04:43;;;;;;;;;;;;;;;15.90;77.29;102349.06;5078631;28;20032;-61
2022/07/11 02:07:11;;;;;;;;;;;;;;;15.91;78.11;102350.78;5082799;28;20354;-62
2022/07/11 02:09:36;;;;;;;;;;;;;;;15.85;77.72;102343.38;5076313;28;20429;-61
2022/07/11 02:12:01;;;;;;;;;;;;;;;15.91;77.75;102343.56;5082200;28;19916;-61
2022/07/11 02:14:26;;;;;;;;;;;;;;;15.95;78.10;102344.06;5080411;28;19922;-61
2022/07/11 02:16:51;;;;;;;;;;;;;;;15.97;78.22;102337.53;5081277;28;20432;-61
2022/07/11 02:19:16;;;;;;;;;;;;;;;15.99;79.00;102338.19;5085537;28;19947;-61
2022/07/11 02:21:42;;;;;;;;;;;;;;;16.01;78.56;102338.84;5076687;28;20071;-61
2022/07/11 02:24:08;;;;;;;;;;;;;;;16.04;78.94;102333.16;5082043;28;19943;-62
2022/07/11 02:26:33;;;;;;;;;;;;;;;16.07;78.90;102332.81;5084794;28;20418;-61
2022/07/11 02:28:58;;;;;;;;;;;;;;;16.09;78.51;102332.63;5081595;28;19908;-61
2022/07/11 02:31:24;;;;;;;;;;;;;;;16.12;78.24;102334.97;5075848;28;19913;-61
2022/07/11 02:33:49;;;;;;;;;;;;;;;16.17;78.81;102334.47;5079140;28;19934;-61
2022/07/11 02:36:14;;;;;;;;;;;;;;;16.18;79.27;102328.09;5086026;28;19981;-61
2022/07/11 02:38:39;;;;;;;;;;;;;;;16.18;79.56;102336.13;5080788;28;19995;-61
2022/07/11 02:41:05;;;;;;;;;;;;;;;16.14;79.71;102324.91;5080518;28;19973;-61
2022/07/11 02:43:30;;;;;;;;;;;;;;;16.11;79.83;102333.31;5077375;28;19969;-61
2022/07/11 02:45:55;;;;;;;;;;;;;;;16.13;79.76;102335.81;5077517;28;19912;-61
2022/07/11 02:48:21;;;;;;;;;;;;;;;16.12;80.29;102334.97;5082155;28;20046;-60
2022/07/11 02:50:46;;;;;;;;;;;;;;;16.14;80.23;102332.13;5081561;28;19912;-61
2022/07/11 02:53:11;;;;;;;;;;;;;;;16.14;80.78;102332.13;5079950;28;20371;-61
2022/07/11 02:55:37;;;;;;;;;;;;;;;16.11;80.89;102334.13;5082410;28;20418;-61
2022/07/11 02:58:02;;;;;;;;;;;;;;;16.08;80.64;102334.47;5080062;28;19958;-61
2022/07/11 03:00:27;;;;;;;;;;;;;;;16.05;80.80;102329.47;5082752;28;19938;-61
2022/07/11 03:02:52;;;;;;;;;;;;;;;16.02;81.35;102328.97;5083579;28;19965;-62
2022/07/11 03:05:18;;;;;;;;;;;;;;;16.01;81.50;102336.19;5082756;28;20274;-62
2022/07/11 03:07:43;;;;;;;;;;;;;;;16.00;81.55;102323.78;5081993;28;20505;-61
2022/07/11 03:10:08;;;;;;;;;;;;;;;16.02;81.29;102329.81;5076776;28;19916;-61
2022/07/11 03:12:34;;;;;;;;;;;;;;;16.02;81.73;102329.81;5079205;28;19952;-61
2022/07/11 03:14:59;;;;;;;;;;;;;;;16.01;82.04;102340.69;5082262;28;20360;-61
2022/07/11 03:17:24;;;;;;;;;;;;;;;16.01;81.96;102335.34;5082599;28;19919;-62
2022/07/11 03:19:49;;;;;;;;;;;;;;;16.01;81.76;102329.97;5077607;28;19925;-62
2022/07/11 03:22:15;;;;;;;;;;;;;;;16.02;81.78;102323.63;5079106;28;19974;-62
2022/07/11 03:24:41;;;;;;;;;;;;;;;16.03;81.93;102330.66;5082404;28;20359;-61
2022/07/11 03:27:06;;;;;;;;;;;;;;;16.05;81.73;102337.50;5081528;28;19920;-61
2022/07/11 03:29:31;;;;;;;;;;;;;;;16.09;81.77;102341.50;5089442;28;19969;-61
2022/07/11 03:31:57;;;;;;;;;;;;;;;16.12;81.65;102345.69;5088334;28;19912;-62
2022/07/11 03:34:22;;;;;;;;;;;;;;;16.12;81.86;102340.34;5087920;28;20007;-61
2022/07/11 03:36:47;;;;;;;;;;;;;;;16.11;82.03;102347.53;5089525;28;19908;-61
2022/07/11 03:39:13;;;;;;;;;;;;;;;16.12;81.98;102340.34;5085825;28;19912;-61
2022/07/11 03:41:38;;;;;;;;;;;;;;;16.13;82.60;102347.38;5087924;28;20018;-61
2022/07/11 03:44:03;;;;;;;;;;;;;;;16.11;82.33;102331.47;5088191;28;20007;-61
2022/07/11 03:46:29;;;;;;;;;;;;;;;16.11;82.37;102336.81;5088405;28;19919;-61
2022/07/11 03:48:54;;;;;;;;;;;;;;;16.14;82.61;102334.81;5089319;28;19908;-61
2022/07/11 03:51:19;;;;;;;;;;;;;;;16.17;82.66;102337.13;5086476;28;19977;-61
2022/07/11 03:53:44;;;;;;;;;;;;;;;16.16;82.77;102343.50;5089319;28;19915;-61
2022/07/11 03:56:10;;;;;;;;;;;;;;;16.15;82.88;102345.34;5078801;28;19955;-61
2022/07/11 03:58:35;;;;;;;;;;;;;;;16.16;82.63;102347.03;5077098;28;21182;-61
2022/07/11 04:01:00;;;;;;;;;;;;;;;16.15;82.50;102345.34;5077109;28;20417;-61
2022/07/11 04:03:25;;;;;;;;;;;;;;;16.15;82.48;102345.34;5079459;28;19916;-61
2022/07/11 04:05:51;;;;;;;;;;;;;;;16.15;82.36;102339.16;5083570;28;20007;-61
2022/07/11 04:08:16;;;;;;;;;;;;;;;16.18;82.35;102341.50;5082535;28;19966;-61
2022/07/11 04:10:41;;;;;;;;;;;;;;;16.20;82.24;102337.66;5076445;28;19977;-61
2022/07/11 04:13:06;;;;;;;;;;;;;;;16.23;82.17;102337.31;5077342;28;20367;-61
2022/07/11 04:15:32;;;;;;;;;;;;;;;16.27;82.18;102337.81;5083754;28;20155;-61
2022/07/11 04:17:57;;;;;;;;;;;;;;;16.31;81.88;102341.81;5080540;28;19912;-61
2022/07/11 04:20:22;;;;;;;;;;;;;;;16.34;81.68;102342.31;5079638;28;19973;-61
2022/07/11 04:22:47;;;;;;;;;;;;;;;16.37;81.84;102344.63;5078458;28;19955;-61
2022/07/11 04:25:12;;;;;;;;;;;;;;;16.37;82.22;102343.78;5077497;28;19916;-62
2022/07/11 04:27:38;;;;;;;;;;;;;;;16.37;82.16;102341.97;5081341;28;19912;-61
2022/07/11 04:30:03;;;;;;;;;;;;;;;16.39;82.12;102341.78;5080063;28;20283;-61
2022/07/11 04:32:28;;;;;;;;;;;;;;;16.35;82.14;102330.56;5074312;28;19912;-61
2022/07/11 04:34:54;;;;;;;;;;;;;;;16.46;81.92;102347.28;5077214;28;19927;-61
2022/07/11 04:37:19;;;;;;;;;;;;;;;16.51;82.02;102350.31;5079640;28;20371;-61
2022/07/11 04:39:46;;;;;;;;;;;;;;;16.53;81.89;102349.13;5082954;28;19916;-62
2022/07/11 04:42:12;;;;;;;;;;;;;;;16.57;81.72;102349.63;5080635;28;19958;-61
2022/07/11 04:44:38;;;;;;;;;;;;;;;16.59;82.10;102352.97;5082693;28;19920;-62
2022/07/11 04:47:03;;;;;;;;;;;;;;;16.61;82.29;102350.94;5076702;28;19942;-61
2022/07/11 04:49:29;;;;;;;;;;;;;;;16.61;82.31;102358.97;5079544;28;19935;-62
2022/07/11 04:51:54;;;;;;;;;;;;;;;16.62;82.19;102356.13;5077086;28;20016;-61
2022/07/11 04:54:19;;;;;;;;;;;;;;;16.63;82.11;102354.28;5081684;28;19965;-60
2022/07/11 04:56:45;;;;;;;;;;;;;;;16.65;81.95;102357.63;5079232;28;19920;-61
2022/07/11 04:59:10;;;;;;;;;;;;;;;16.68;81.96;102360.00;5075270;28;20018;-61
2022/07/11 05:01:35;;;;;;;;;;;;;;;16.70;81.78;102371.38;5081769;28;19920;-61
2022/07/11 05:04:00;;;;;;;;;;;;;;;16.71;81.91;102370.38;5081509;28;19919;-61
2022/07/11 05:06:26;;;;;;;;;;;;;;;16.72;81.62;102369.34;5064542;28;19922;-60
2022/07/11 05:08:51;;;;;;;;;;;;;;;16.73;81.54;102361.13;5073451;28;20356;-61
2022/07/11 05:11:17;;;;;;;;;;;;;;;16.78;81.51;102362.47;5077632;28;20410;-61
2022/07/11 05:13:42;;;;;;;;;;;;;;;16.80;81.35;102372.03;5083188;28;19957;-61
2022/07/11 05:16:07;;;;;;;;;;;;;;;16.81;81.32;102368.34;5083770;28;20505;-61
2022/07/11 05:18:32;;;;;;;;;;;;;;;16.83;81.34;102366.31;5074429;28;20006;-61
2022/07/11 05:20:58;;;;;;;;;;;;;;;16.84;81.03;102365.31;5076812;28;20367;-61
2022/07/11 05:23:23;;;;;;;;;;;;;;;16.87;80.80;102370.31;5075432;28;19928;-61
2022/07/11 05:25:48;;;;;;;;;;;;;;;16.90;81.08;102378.00;5076225;28;19920;-61
2022/07/11 05:28:13;;;;;;;;;;;;;;;16.91;81.22;102382.38;5084929;28;20367;-62
2022/07/11 05:30:38;;;;;;;;;;;;;;;16.88;81.30;102377.34;5087424;28;19908;-61
2022/07/11 05:33:03;;;;;;;;;;;;;;;16.86;81.19;102381.22;5082603;28;19965;-61
2022/07/11 05:35:29;;;;;;;;;;;;;;;16.84;81.19;102378.72;5083881;28;19914;-61
2022/07/11 05:37:54;;;;;;;;;;;;;;;16.85;81.40;102380.38;5077311;28;21185;-61
2022/07/11 05:40:20;;;;;;;;;;;;;;;16.86;81.48;102381.22;5086695;28;20018;-62
2022/07/11 05:42:45;;;;;;;;;;;;;;;16.84;81.26;102389.44;5083806;28;20392;-61
2022/07/11 05:45:11;;;;;;;;;;;;;;;16.83;80.98;102387.78;5081850;28;19939;-61
2022/07/11 05:47:36;;;;;;;;;;;;;;;16.78;81.08;102392.84;5083023;28;19993;-61
2022/07/11 05:50:01;;;;;;;;;;;;;;;16.77;81.05;102399.22;5080687;28;19918;-61
2022/07/11 05:52:26;;;;;;;;;;;;;;;16.78;80.98;102400.03;5079459;28;19912;-61
2022/07/11 05:54:52;;;;;;;;;;;;;;;16.78;80.77;102392.84;5084323;28;20012;-61
2022/07/11 05:57:17;;;;;;;;;;;;;;;16.81;80.94;102400.53;5084502;28;19962;-61
2022/07/11 05:59:42;;;;;;;;;;;;;;;16.83;80.59;102400.34;5086675;28;19922;-61
2022/07/11 06:02:07;;;;;;;;;;;;;;;16.83;80.60;102398.50;5087751;28;20166;-61
2022/07/11 06:04:33;;;;;;;;;;;;;;;16.83;80.55;102403.03;5090470;28;19995;-61
2022/07/11 06:06:59;;;;;;;;;;;;;;;16.84;80.57;102402.03;5090116;28;19916;-61
2022/07/11 06:09:24;;;;;;;;;;;;;;;16.87;80.35;102402.50;5086841;28;19937;-62
2022/07/11 06:11:49;;;;;;;;;;;;;;;16.92;80.27;102405.50;5081743;28;19957;-61
2022/07/11 06:14:14;;;;;;;;;;;;;;;16.97;80.65;102405.81;5090095;28;20142;-62
2022/07/11 06:16:40;;;;;;;;;;;;;;;17.02;80.61;102408.81;5084705;28;19970;-61
2022/07/11 06:19:05;;;;;;;;;;;;;;;17.08;80.16;102407.28;5090776;28;20011;-62
2022/07/11 06:21:30;;;;;;;;;;;;;;;17.13;80.20;102396.03;5090746;28;19923;-61
2022/07/11 06:23:56;;;;;;;;;;;;;;;17.18;79.96;102402.53;5090318;28;19932;-62
2022/07/11 06:26:21;;;;;;;;;;;;;;;17.23;80.25;102400.16;5089901;28;19915;-61
2022/07/11 06:28:46;;;;;;;;;;;;;;;17.28;80.25;102411.19;5081279;28;19958;-62
2022/07/11 06:31:12;;;;;;;;;;;;;;;17.33;79.91;102410.66;5089607;28;19916;-62
2022/07/11 06:33:37;;;;;;;;;;;;;;;17.39;80.15;102401.94;5090578;28;20069;-61
2022/07/11 06:36:04;;;;;;;;;;;;;;;17.43;80.01;102405.94;5089102;28;19965;-62
2022/07/11 06:38:29;;;;;;;;;;;;;;;17.49;79.68;102412.44;5088531;28;20267;-62
2022/07/11 06:40:55;;;;;;;;;;;;;;;17.53;79.78;102409.22;5088639;28;19916;-61
2022/07/11 06:43:20;;;;;;;;;;;;;;;17.58;79.80;102406.81;5090449;28;20367;-60
2022/07/11 06:45:46;;;;;;;;;;;;;;;17.60;79.45;102401.25;5090001;28;20381;-62
2022/07/11 06:48:11;;;;;;;;;;;;;;;17.63;79.45;102400.91;5089501;28;19912;-61
2022/07/11 06:50:36;;;;;;;;;;;;;;;17.65;79.54;102396.22;5087527;28;19912;-62
2022/07/11 06:53:02;;;;;;;;;;;;;;;17.66;79.33;102395.19;5089829;28;19908;-61
2022/07/11 06:55:27;;;;;;;;;;;;;;;17.67;79.25;102391.53;5088764;28;20358;-62
2022/07/11 06:57:52;;;;;;;;;;;;;;;17.70;79.25;102393.03;5087273;28;19908;-61
2022/07/11 07:00:18;;;;;;;;;;;;;;;17.75;79.05;102396.00;5090326;28;19962;-62
2022/07/11 07:02:43;;;;;;;;;;;;;;;17.80;78.86;102393.59;5087897;28;20375;-61
2022/07/11 07:05:09;;;;;;;;;;;;;;;17.84;78.97;102392.22;5089977;28;19923;-61
2022/07/11 07:07:34;;;;;;;;;;;;;;;17.91;78.84;102395.84;5089703;28;19957;-61
2022/07/11 07:09:59;;;;;;;;;;;;;;;17.97;79.13;102384.41;5078675;28;19920;-61
2022/07/11 07:12:24;;;;;;;;;;;;;;;18.04;79.06;102385.34;5086690;28;20513;-61
2022/07/11 07:14:50;;;;;;;;;;;;;;;18.08;78.67;102393.88;5088628;28;19908;-62
2022/07/11 07:17:15;;;;;;;;;;;;;;;18.13;78.39;102386.91;5090037;28;20002;-61
2022/07/11 07:19:41;;;;;;;;;;;;;;;18.19;78.39;102382.66;5088068;28;20318;-61
2022/07/11 07:22:08;;;;;;;;;;;;;;;18.24;78.08;102391.03;5085968;28;20023;-61
2022/07/11 07:24:33;;;;;;;;;;;;;;;18.24;77.98;102383.81;5088898;28;19912;-62
2022/07/11 07:26:58;;;;;;;;;;;;;;;18.29;78.00;102387.78;5088131;28;19912;-61
2022/07/11 07:29:25;;;;;;;;;;;;;;;18.33;77.75;102383.72;5089476;28;19959;-61
2022/07/11 07:31:52;;;;;;;;;;;;;;;18.40;77.89;102381.94;5088683;28;19916;-61
2022/07/11 07:34:18;;;;;;;;;;;;;;;18.44;77.92;102386.78;5087154;28;19955;-62
2022/07/11 07:36:43;;;;;;;;;;;;;;;18.46;77.54;102383.91;5088149;28;19962;-62
2022/07/11 07:39:08;;;;;;;;;;;;;;;18.49;77.58;102388.91;5088019;28;19908;-61
2022/07/11 07:41:33;;;;;;;;;;;;;;;18.51;77.48;102384.19;5085263;28;19935;-62
2022/07/11 07:43:58;;;;;;;;;;;;;;;18.54;77.25;102394.59;5088312;28;19907;-62
2022/07/11 07:46:24;;;;;;;;;;;;;;;18.56;77.15;102396.06;5088519;28;19911;-63
2022/07/11 07:48:49;;;;;;;;;;;;;;;18.56;77.18;102393.38;5088103;28;19908;-62
2022/07/11 07:51:14;;;;;;;;;;;;;;;18.59;77.25;102397.56;5086809;28;19912;-62
2022/07/11 07:53:39;;;;;;;;;;;;;;;18.59;76.90;102392.16;5087635;28;19955;-62
2022/07/11 07:56:05;;;;;;;;;;;;;;;18.58;76.99;102402.09;5086224;28;19912;-62
2022/07/11 07:58:30;;;;;;;;;;;;;;;18.61;76.89;102408.13;5089745;28;19907;-62
2022/07/11 08:03:39;;;;;;;;;;;;;;;18.66;76.88;102413.81;5089542;28;20026;-62
2022/07/11 08:06:04;;;;;;;;;;;;;;;18.63;76.58;102409.66;5088520;28;20398;-62
2022/07/11 08:08:30;;;;;;;;;;;;;;;18.61;76.39;102416.19;5089105;28;19908;-62
2022/07/11 08:10:55;;;;;;;;;;;;;;;18.60;76.31;102409.16;5087642;28;19969;-62
2022/07/11 08:13:20;;;;;;;;;;;;;;;18.58;76.28;102412.03;5088569;28;19940;-62
2022/07/11 08:15:46;;;;;;;;;;;;;;;18.60;76.46;102410.00;5088194;28;19916;-62
2022/07/11 08:18:11;;;;;;;;;;;;;;;18.61;76.27;102410.81;5086852;28;19911;-62
2022/07/11 08:20:36;;;;;;;;;;;;;;;18.66;76.10;102408.44;5081300;28;19916;-62
2022/07/11 08:23:03;;;;;;;;;;;;;;;18.76;76.44;102408.97;5088868;28;19908;-62
2022/07/11 08:25:29;;;;;;;;;;;;;;;18.85;76.18;102411.41;5087061;28;19955;-62
2022/07/11 08:27:54;;;;;;;;;;;;;;;18.92;76.24;102418.72;5087774;28;19962;-62
2022/07/11 08:30:19;;;;;;;;;;;;;;;18.96;76.46;102418.16;5085902;28;19912;-62
2022/07/11 08:32:44;;;;;;;;;;;;;;;19.04;76.28;102420.75;5084694;28;19966;-62
2022/07/11 08:35:11;;;;;;;;;;;;;;;19.09;76.09;102421.03;5087512;28;19908;-62
2022/07/11 08:37:36;;;;;;;;;;;;;;;19.10;76.21;102421.88;5087411;28;19923;-62
2022/07/11 08:40:01;;;;;;;;;;;;;;;19.10;75.92;102421.88;5088603;28;19912;-62
2022/07/11 08:42:29;;;;;;;;;;;;;;;19.10;75.89;102419.19;5086158;28;19908;-62
2022/07/11 08:44:55;;;;;;;;;;;;;;;19.11;75.65;102419.00;5087969;28;19947;-62
2022/07/11 08:47:20;;;;;;;;;;;;;;;19.11;75.56;102416.31;5087554;28;19923;-62
2022/07/11 08:49:46;;;;;;;;;;;;;;;19.12;75.35;102412.59;5089107;28;19912;-62
2022/07/11 08:52:12;;;;;;;;;;;;;;;19.13;75.51;102416.09;5086954;28;20375;-62
2022/07/11 08:54:38;;;;;;;;;;;;;;;19.16;75.30;102413.88;5087347;28;19919;-61
2022/07/11 08:57:03;;;;;;;;;;;;;;;19.18;75.24;102419.06;5086271;28;19912;-61
2022/07/11 08:59:31;;;;;;;;;;;;;;;19.21;75.06;102413.31;5087732;28;19988;-61
2022/07/11 09:01:57;;;;;;;;;;;;;;;19.23;75.00;102408.56;5085990;28;20287;-62
2022/07/11 09:04:23;;;;;;;;;;;;;;;19.29;75.07;102412.34;5086545;28;19912;-62
2022/07/11 09:06:49;;;;;;;;;;;;;;;19.35;75.21;102392.72;5085789;28;19965;-62
2022/07/11 09:09:14;;;;;;;;;;;;;;;19.48;74.83;102409.88;5087565;28;20355;-62
2022/07/11 09:11:50;;;;;;;;;;;;;;;19.57;74.51;102404.38;5086400;28;20470;-62
2022/07/11 09:14:20;;;;;;;;;;;;;;;19.68;74.34;102409.28;5089801;28;19993;-62
2022/07/11 09:16:52;;;;;;;;;;;;;;;19.74;74.34;102403.13;5090184;28;20045;-62
2022/07/11 09:19:21;;;;;;;;;;;;;;;19.80;74.26;102403.19;5090413;28;19912;-62
2022/07/11 09:27:44;;;;;;;;;;;;;;;20.07;73.07;102406.94;5090351;28;19914;-62
2022/07/11 09:30:16;;;;;;;;;;;;;;;20.13;72.99;102409.88;5091705;28;19918;-62
2022/07/11 09:32:42;;;;;;;;;;;;;;;20.15;72.25;102407.81;5088424;28;20272;-62
2022/07/11 09:35:10;;;;;;;;;;;;;;;20.14;72.03;102401.59;5091880;28;19916;-62
2022/07/11 09:37:43;;;;;;;;;;;;;;;20.15;71.84;102403.25;5086427;28;20006;-62
2022/07/11 09:40:11;;;;;;;;;;;;;;;20.17;71.89;102408.47;5087955;28;19916;-61
2022/07/11 09:42:50;;;;;;;;;;;;;;;20.18;71.71;102415.53;5089744;28;20010;-62
2022/07/11 09:45:16;;;;;;;;;;;;;;;20.17;71.75;102412.00;5092144;28;20486;-62
2022/07/11 09:47:49;;;;;;;;;;;;;;;20.15;71.64;102407.81;5086095;28;20102;-61
2022/07/11 09:50:21;;;;;;;;;;;;;;;20.15;71.61;102408.66;5085013;28;19916;-62
2022/07/11 09:53:00;;;;;;;;;;;;;;;20.18;71.53;102402.03;5084789;28;20386;-62
2022/07/11 09:55:25;;;;;;;;;;;;;;;20.24;71.78;102409.34;5082653;28;19938;-62
2022/07/11 09:57:51;;;;;;;;;;;;;;;20.30;71.54;102412.09;5081848;28;20371;-62
2022/07/11 10:00:16;;;;;;;;;;;;;;;20.34;71.49;102409.84;5088113;28;19930;-61
2022/07/11 10:02:41;;;;;;;;;;;;;;;20.37;71.36;102421.06;5082747;28;19915;-62
2022/07/11 10:05:07;;;;;;;;;;;;;;;20.39;71.22;102421.72;5089636;28;20401;-62
2022/07/11 10:07:32;;;;;;;;;;;;;;;20.38;70.85;102417.34;5088009;28;19927;-62
2022/07/11 10:09:59;;;;;;;;;;;;;;;20.40;70.94;102415.31;5091495;28;19912;-62
2022/07/11 10:12:24;;;;;;;;;;;;;;;20.41;70.92;102418.84;5088486;28;20534;-62
2022/07/11 10:14:50;;;;;;;;;;;;;;;20.41;70.72;102418.84;5086056;28;19915;-62
2022/07/11 10:17:21;;;;;;;;;;;;;;;20.35;70.33;102423.13;5090502;28;20574;-62
2022/07/11 10:19:50;;;;;;;;;;;;;;;20.31;70.48;102424.56;5083900;28;20186;-62
2022/07/11 10:22:15;;;;;;;;;;;;;;;20.31;70.54;102416.47;5079805;28;20011;-62
2022/07/11 10:24:45;;;;;;;;;;;;;;;20.35;70.59;102422.31;5081167;28;20323;-62
2022/07/11 10:27:16;;;;;;;;;;;;;;;20.41;70.66;102425.06;5062632;28;20346;-62
2022/07/11 10:29:50;;;;;;;;;;;;;;;20.46;70.74;102429.88;5086127;28;19915;-61
2022/07/11 10:32:16;;;;;;;;;;;;;;;20.49;70.45;102434.03;5077624;28;19916;-62
2022/07/11 10:34:41;;;;;;;;;;;;;;;20.50;70.22;102433.84;5081673;28;19912;-62
2022/07/11 10:37:08;;;;;;;;;;;;;;;20.55;70.13;102433.28;5080423;28;19950;-62
2022/07/11 10:39:34;;;;;;;;;;;;;;;20.57;69.91;102417.72;5090219;28;19908;-62
2022/07/11 10:42:01;;;;;;;;;;;;;;;20.59;69.62;102427.28;5089304;28;19914;-61
2022/07/11 10:44:27;;;;;;;;;;;;;;;20.63;69.37;102419.63;5089302;28;20002;-62
2022/07/11 10:46:53;;;;;;;;;;;;;;;20.64;69.17;102427.50;5090484;28;19908;-62
2022/07/11 10:49:37;;;;;;;;;;;;;;;20.69;69.41;102435.84;5089349;28;20390;-61
2022/07/11 10:52:02;;;;;;;;;;;;;;;20.75;68.95;102433.38;5084516;28;19915;-61
2022/07/11 10:54:30;;;;;;;;;;;;;;;20.62;68.43;102421.47;5090453;28;19907;-62
2022/07/11 10:56:55;;;;;;;;;;;;;;;20.40;68.05;102423.41;5090352;28;19970;-62
2022/07/11 10:59:21;;;;;;;;;;;;;;;20.18;68.11;102420.91;5087929;28;19989;-63
2022/07/11 11:02:04;;;;;;;;;;;;;;;19.99;68.33;102412.47;5085457;28;19931;-62
2022/07/11 11:04:43;;;;;;;;;;;;;;;20.00;68.66;102427.63;5089994;28;19908;-62
2022/07/11 11:07:28;;;;;;;;;;;;;;;20.03;68.94;102429.09;5088043;28;19915;-61
2022/07/11 11:09:53;;;;;;;;;;;;;;;20.05;68.91;102427.88;5083832;28;19991;-62
2022/07/11 11:12:18;;;;;;;;;;;;;;;20.13;69.19;102426.91;5088901;28;20011;-62
2022/07/11 11:14:43;;;;;;;;;;;;;;;20.20;69.08;102424.25;5086426;28;20341;-62
2022/07/11 11:17:27;;;;;;;;;;;;;;;20.30;69.40;102422.91;5088352;28;19916;-61
2022/07/11 11:19:53;;;;;;;;;;;;;;;20.45;69.34;102427.38;5078069;28;20014;-61
2022/07/11 11:22:19;;;;;;;;;;;;;;;20.53;69.15;102429.91;5087533;28;20011;-62
2022/07/11 11:24:48;;;;;;;;;;;;;;;20.56;68.85;102435.78;5090029;28;19912;-62
2022/07/11 11:27:19;;;;;;;;;;;;;;;20.59;68.26;102429.16;5088276;28;19915;-62
2022/07/11 11:29:44;;;;;;;;;;;;;;;20.63;68.21;102430.41;5090570;28;19941;-62
2022/07/11 11:32:09;;;;;;;;;;;;;;;20.68;68.25;102427.94;5086787;28;19912;-62
2022/07/11 11:34:35;;;;;;;;;;;;;;;20.75;67.84;102417.19;5088576;28;19912;-62
2022/07/11 11:37:01;;;;;;;;;;;;;;;20.76;67.80;102425.06;5089084;28;19954;-62
2022/07/11 11:39:34;;;;;;;;;;;;;;;20.82;67.88;102428.88;5086672;28;20394;-62
2022/07/11 11:42:17;;;;;;;;;;;;;;;20.93;67.99;102431.81;5088436;28;19914;-62
2022/07/11 11:44:55;;;;;;;;;;;;;;;21.05;67.98;102423.97;5079524;28;20368;-62
2022/07/11 11:47:21;;;;;;;;;;;;;;;21.15;67.90;102429.03;5076204;28;19921;-61
2022/07/11 11:49:47;;;;;;;;;;;;;;;21.21;67.62;102420.94;5085456;28;19924;-62
2022/07/11 11:52:12;;;;;;;;;;;;;;;21.28;67.14;102415.56;5085191;28;20386;-62
2022/07/11 11:54:39;;;;;;;;;;;;;;;21.30;66.87;102413.50;5088527;28;19920;-62
2022/07/11 11:57:11;;;;;;;;;;;;;;;21.40;67.16;102413.97;5084860;28;20391;-62
2022/07/11 11:59:36;;;;;;;;;;;;;;;21.47;66.87;102420.22;5085430;28;19919;-62
2022/07/11 12:02:02;;;;;;;;;;;;;;;21.54;66.40;102420.22;5084630;28;19911;-62
2022/07/11 12:04:30;;;;;;;;;;;;;;;21.59;66.60;102417.72;5081983;28;19915;-61
2022/07/11 12:06:55;;;;;;;;;;;;;;;21.64;65.61;102426.06;5080398;28;19928;-62
2022/07/11 12:09:46;;;;;;;;;;;;;;;21.64;65.88;102423.34;5081012;28;19920;-62
2022/07/11 12:14:50;;;;;;;;;;;;;;;21.72;65.81;102425.06;5087236;28;20011;-61
2022/07/11 12:17:22;;;;;;;;;;;;;;;21.75;65.76;102425.47;5083640;28;19998;-61
2022/07/11 12:19:48;;;;;;;;;;;;;;;21.74;64.55;102415.69;5076248;28;20213;-62
2022/07/11 12:22:13;;;;;;;;;;;;;;;21.57;63.70;102401.72;5081207;28;19934;-62
2022/07/11 12:24:38;;;;;;;;;;;;;;;21.41;63.70;102406.69;5085598;28;20363;-62
2022/07/11 12:27:03;;;;;;;;;;;;;;;21.32;63.85;102406.84;5089304;28;19908;-62
2022/07/11 12:29:29;;;;;;;;;;;;;;;21.29;64.11;102409.13;5087445;28;19931;-62
2022/07/11 12:31:55;;;;;;;;;;;;;;;21.29;63.93;102404.56;5078207;28;19912;-63
2022/07/11 12:34:21;;;;;;;;;;;;;;;21.36;64.42;102396.47;5088119;28;19968;-62
2022/07/11 12:36:47;;;;;;;;;;;;;;;21.52;64.73;102395.28;5070404;28;19920;-62
2022/07/11 12:39:23;;;;;;;;;;;;;;;21.60;64.35;102387.78;5085163;28;19965;-62
2022/07/11 12:41:49;;;;;;;;;;;;;;;21.62;63.99;102387.56;5080602;28;20003;-62